Time;durP1;ratioP1;P1;durP2;ratioP2;P2;SDS_P1;SDS_P2;PMS_P1;PMS_P2;Temp;Humidity;BMP_temperature;BMP_pressure;BME280_temperature;BME280_humidity;BME280_pressure;Samples;Min_cycle;Max_cycle;Signal;HPM_P1;HPM_P2
2023/01/26 00:00:47;;;;;;;17.15;4.68;;;;;;;3.38;100.00;103224.47;4999551;28;20041;-78
2023/01/26 00:03:13;;;;;;;15.82;3.63;;;;;;;3.35;100.00;103232.59;4999627;28;20033;-77
2023/01/26 00:05:39;;;;;;;16.38;2.88;;;;;;;3.38;100.00;103235.09;5015346;28;20106;-77
2023/01/26 00:08:05;;;;;;;16.02;3.45;;;;;;;3.41;100.00;103232.31;4999509;28;20480;-78
2023/01/26 00:10:31;;;;;;;14.63;4.07;;;;;;;3.47;100.00;103236.53;4999326;28;20037;-77
2023/01/26 00:12:57;;;;;;;5.65;2.17;;;;;;;3.45;100.00;103235.72;4999435;28;20553;-77
2023/01/26 00:15:23;;;;;;;13.95;3.15;;;;;;;3.46;100.00;103240.09;4999170;28;20040;-79
2023/01/26 00:17:51;;;;;;;17.33;3.75;;;;;;;3.52;100.00;103232.72;4982960;28;20121;-79
2023/01/26 00:20:17;;;;;;;27.70;4.30;;;;;;;3.56;100.00;103236.09;4999327;28;20056;-79
2023/01/26 00:22:43;;;;;;;6.03;2.95;;;;;;;3.56;100.00;103232.56;4999301;28;20431;-79
2023/01/26 00:25:09;;;;;;;13.25;5.80;;;;;;;3.45;100.00;103215.28;4998936;28;20080;-80
2023/01/26 00:27:35;;;;;;;23.88;4.72;;;;;;;3.46;100.00;103224.13;4998654;28;20084;-78
2023/01/26 00:30:01;;;;;;;17.60;3.60;;;;;;;3.33;100.00;103223.81;4982745;28;20030;-79
2023/01/26 00:32:26;;;;;;;35.10;4.80;;;;;;;3.12;100.00;103212.31;4999157;28;20120;-79
2023/01/26 00:34:52;;;;;;;22.50;5.00;;;;;;;3.07;100.00;103223.19;5015097;28;20475;-79
2023/01/26 00:37:18;;;;;;;16.27;3.33;;;;;;;2.80;100.00;103185.34;4998747;28;20361;-79
2023/01/26 00:39:44;;;;;;;27.90;4.28;;;;;;;2.72;100.00;103197.25;4998914;28;20124;-79
2023/01/26 00:42:12;;;;;;;18.27;3.78;;;;;;;2.62;100.00;103216.22;4998872;28;20046;-78
2023/01/26 00:44:40;;;;;;;21.27;4.75;;;;;;;2.48;100.00;103229.19;4999066;28;20041;-78
2023/01/26 00:47:09;;;;;;;18.40;4.97;;;;;;;2.33;100.00;103235.13;5014599;28;20026;-79
2023/01/26 00:49:35;;;;;;;25.02;4.35;;;;;;;2.10;100.00;103228.09;4998802;28;20096;-79
2023/01/26 00:52:01;;;;;;;18.13;3.20;;;;;;;2.16;100.00;103244.63;4998680;28;20034;-79
2023/01/26 00:54:27;;;;;;;13.77;4.78;;;;;;;2.36;100.00;103227.91;4998019;28;20490;-79
2023/01/26 00:56:54;;;;;;;24.90;5.13;;;;;;;2.54;100.00;103234.28;5014362;28;20506;-79
2023/01/26 00:59:20;;;;;;;31.10;6.93;;;;;;;2.61;100.00;103238.41;5014508;28;20468;-78
2023/01/26 01:01:46;;;;;;;27.80;5.82;;;;;;;2.66;100.00;103232.91;4998462;28;20038;-78
2023/01/26 01:04:12;;;;;;;17.48;4.50;;;;;;;2.63;100.00;103225.06;5014637;28;20026;-78
2023/01/26 01:06:38;;;;;;;13.57;4.63;;;;;;;2.51;100.00;103225.56;4998085;28;20052;-77
2023/01/26 01:09:03;;;;;;;26.45;5.40;;;;;;;2.55;100.00;103206.78;4997964;28;20395;-78
2023/01/26 01:11:29;;;;;;;24.52;5.18;;;;;;;2.47;100.00;103194.75;4998311;28;20057;-77
2023/01/26 01:13:55;;;;;;;40.25;4.53;;;;;;;2.52;100.00;103227.31;5014020;28;20026;-78
2023/01/26 01:16:20;;;;;;;35.70;7.88;;;;;;;2.33;100.00;103204.16;4998282;28;20481;-77
2023/01/26 01:18:46;;;;;;;22.08;7.15;;;;;;;2.32;100.00;103228.97;4997985;28;20038;-78
2023/01/26 01:21:14;;;;;;;18.15;6.03;;;;;;;2.33;100.00;103220.09;5014305;28;20471;-78
2023/01/26 01:23:40;;;;;;;38.55;8.88;;;;;;;2.44;100.00;103217.00;4997740;28;20451;-79
2023/01/26 01:26:07;;;;;;;25.30;6.72;;;;;;;2.39;100.00;103217.16;4981816;28;20042;-77
2023/01/26 01:28:36;;;;;;;29.55;6.47;;;;;;;2.25;100.00;103198.28;5013585;28;20479;-78
2023/01/26 01:31:06;;;;;;;19.92;6.35;;;;;;;2.11;100.00;103193.50;4981708;28;20037;-78
2023/01/26 01:33:32;;;;;;;25.48;5.78;;;;;;;1.99;100.00;103199.31;4997577;28;20048;-78
2023/01/26 01:35:59;;;;;;;22.55;5.57;;;;;;;2.04;100.00;103231.84;4997842;28;20459;-78
2023/01/26 01:38:26;;;;;;;16.60;6.35;;;;;;;1.83;100.00;103214.97;4997559;28;20045;-78
2023/01/26 01:40:52;;;;;;;28.73;6.85;;;;;;;1.75;100.00;103217.91;4997519;28;20397;-78
2023/01/26 01:43:18;;;;;;;25.35;7.25;;;;;;;1.68;100.00;103215.56;5013724;28;20034;-78
2023/01/26 01:45:49;;;;;;;21.42;9.55;;;;;;;1.71;100.00;103213.63;5013396;28;20032;-78
2023/01/26 01:48:23;;;;;;;27.52;6.80;;;;;;;1.66;100.00;103233.31;5013910;28;20026;-77
2023/01/26 01:50:52;;;;;;;22.38;7.75;;;;;;;1.63;100.00;103228.97;5014889;28;20113;-78
2023/01/26 01:53:23;;;;;;;27.38;6.20;;;;;;;1.84;100.00;103231.75;5013655;28;20080;-78
2023/01/26 01:55:58;;;;;;;22.55;7.28;;;;;;;1.95;100.00;103235.72;5013767;28;20037;-78
2023/01/26 01:58:24;;;;;;;28.23;6.85;;;;;;;1.93;100.00;103226.97;4997516;28;20038;-78
2023/01/26 02:00:50;;;;;;;23.42;5.85;;;;;;;2.03;100.00;103237.22;5013166;28;20531;-79
2023/01/26 02:03:20;;;;;;;21.27;6.25;;;;;;;2.11;100.00;103235.13;4997387;28;20133;-78
2023/01/26 02:06:04;;;;;;;26.92;7.45;;;;;;;2.11;100.00;103225.38;4996910;28;20029;-78
2023/01/26 02:08:35;;;;;;;34.67;8.80;;;;;;;2.19;100.00;103217.97;4981040;28;20049;-78
2023/01/26 02:11:06;;;;;;;27.95;9.25;;;;;;;2.33;100.00;103227.16;5013071;28;20545;-78
2023/01/26 02:13:32;;;;;;;26.65;8.73;;;;;;;2.39;100.00;103237.56;4997240;28;20065;-78
2023/01/26 02:15:59;;;;;;;25.55;6.45;;;;;;;2.47;100.00;103226.63;4997092;28;20487;-78
2023/01/26 02:18:24;;;;;;;21.25;6.25;;;;;;;2.48;100.00;103205.31;4997130;28;20048;-78
2023/01/26 02:20:57;;;;;;;24.02;5.15;;;;;;;2.68;100.00;103230.19;4996973;28;20029;-79
2023/01/26 02:23:50;;;;;;;15.95;3.80;;;;;;;2.59;100.00;103212.81;4996990;28;20042;-78
2023/01/26 02:26:19;;;;;;;19.27;4.55;;;;;;;2.72;100.00;103237.94;4980591;28;20041;-78
2023/01/26 02:28:45;;;;;;;17.88;4.13;;;;;;;2.70;100.00;103239.81;5013299;28;20033;-78
2023/01/26 02:31:12;;;;;;;16.17;3.92;;;;;;;2.68;100.00;103236.38;4996873;28;20037;-78
2023/01/26 02:33:38;;;;;;;13.13;3.70;;;;;;;2.75;100.00;103240.50;5012848;28;20464;-78
2023/01/26 02:36:06;;;;;;;16.58;3.42;;;;;;;2.83;100.00;103234.84;4996578;28;20041;-77
2023/01/26 02:38:43;;;;;;;14.40;3.72;;;;;;;2.91;100.00;103221.22;4996731;28;20069;-78
2023/01/26 02:42:37;;;;;;;5.70;2.13;;;;;;;2.98;100.00;103220.03;5013032;28;20497;-78
2023/01/26 02:44:04;;;;;;;12.98;3.65;;;;;;;3.00;100.00;103223.50;4999479;28;20084;-78
2023/01/26 02:46:30;;;;;;;16.10;4.15;;;;;;;2.93;100.00;103230.00;5012756;28;20026;-78
2023/01/26 02:51:44;;;;;;;11.00;3.63;;;;;;;3.03;100.00;103248.16;4998891;28;20084;-78
2023/01/26 02:55:21;;;;;;;33.88;5.25;;;;;;;3.06;100.00;103223.25;4996645;28;20444;-78
2023/01/26 02:56:55;;;;;;;8.70;3.35;;;;;;;3.14;100.00;103217.59;4999085;28;20034;-78
2023/01/26 02:59:21;;;;;;;16.27;3.75;;;;;;;3.16;100.00;103219.25;4996561;28;20041;-78
2023/01/26 03:01:49;;;;;;;14.90;3.97;;;;;;;3.12;100.00;103219.44;4996630;28;20128;-78
2023/01/26 03:04:15;;;;;;;19.35;4.25;;;;;;;3.11;100.00;103237.19;5012791;28;20038;-78
2023/01/26 03:06:40;;;;;;;16.33;4.25;;;;;;;3.11;100.00;103244.31;4996267;28;20614;-79
2023/01/26 03:09:06;;;;;;;12.30;3.60;;;;;;;3.06;100.00;103240.03;4996340;28;20500;-79
2023/01/26 03:11:40;;;;;;;16.10;3.45;;;;;;;3.19;100.00;103261.66;4996617;28;20045;-77
2023/01/26 03:14:09;;;;;;;14.25;3.20;;;;;;;3.17;100.00;103244.03;4997606;28;20092;-79
2023/01/26 03:16:35;;;;;;;17.65;3.50;;;;;;;3.27;100.00;103245.38;5012708;28;20050;-78
2023/01/26 03:29:43;;;;;;;20.20;4.03;;;;;;;3.31;100.00;103252.28;5002615;28;20026;-78
2023/01/26 03:32:09;;;;;;;28.63;4.13;;;;;;;3.22;100.00;103224.28;5000170;28;20108;-78
2023/01/26 03:34:34;;;;;;;11.38;3.25;;;;;;;3.47;100.00;103242.69;5000070;28;20471;-77
2023/01/26 03:37:00;;;;;;;19.85;3.22;;;;;;;3.49;100.00;103230.19;4999976;28;20423;-77
2023/01/26 03:56:17;;;;;;;17.92;3.20;;;;;;;3.41;100.00;103227.00;5002179;28;20483;-78
2023/01/26 03:59:11;;;;;;;13.63;2.88;;;;;;;3.45;100.00;103239.22;5001073;28;20041;-77
2023/01/26 04:09:59;;;;;;;16.73;3.88;;;;;;;3.41;100.00;103253.59;5002011;28;20391;-79
2023/01/26 04:12:25;;;;;;;15.68;5.10;;;;;;;3.42;100.00;103249.16;4999207;28;20077;-79
2023/01/26 04:23:03;;;;;;;21.73;3.20;;;;;;;3.40;100.00;103251.88;5001727;28;20034;-79
2023/01/26 04:25:29;;;;;;;17.58;3.17;;;;;;;3.38;100.00;103259.03;4982924;28;20493;-78
2023/01/26 04:27:54;;;;;;;22.80;3.63;;;;;;;3.30;100.00;103248.75;4982888;28;20037;-80
2023/01/26 04:30:20;;;;;;;10.13;2.67;;;;;;;3.26;100.00;103238.34;4998106;28;20483;-78
2023/01/26 04:32:46;;;;;;;8.70;1.80;;;;;;;3.33;100.00;103233.59;4998830;28;20037;-79
2023/01/26 04:35:12;;;;;;;18.33;2.53;;;;;;;3.20;100.00;103217.31;4999045;28;20057;-78
2023/01/26 04:37:38;;;;;;;10.32;2.88;;;;;;;3.24;100.00;103235.72;4982333;28;20453;-78
2023/01/26 04:40:05;;;;;;;13.95;3.10;;;;;;;3.16;100.00;103240.53;4982608;28;20038;-80
2023/01/26 04:42:31;;;;;;;16.73;3.00;;;;;;;3.18;100.00;103238.66;5014930;28;20045;-78
2023/01/26 04:44:57;;;;;;;19.60;3.63;;;;;;;3.23;100.00;103228.69;4982619;28;20107;-78
2023/01/26 04:47:23;;;;;;;19.40;2.78;;;;;;;3.21;100.00;103217.25;4998709;28;20034;-79
2023/01/26 04:49:48;;;;;;;17.77;3.17;;;;;;;3.20;100.00;103223.50;4998763;28;20048;-79
2023/01/26 04:52:15;;;;;;;18.50;3.15;;;;;;;3.29;100.00;103232.88;4998638;28;20387;-79
2023/01/26 04:54:40;;;;;;;19.10;3.20;;;;;;;3.31;100.00;103236.34;4982579;28;20045;-78
2023/01/26 04:57:10;;;;;;;21.95;3.33;;;;;;;3.22;100.00;103215.44;4998578;28;20406;-79
2023/01/26 04:59:36;;;;;;;11.20;2.30;;;;;;;3.40;100.00;103246.56;4998760;28;20030;-78
2023/01/26 05:02:03;;;;;;;11.10;1.90;;;;;;;3.43;100.00;103241.09;5014701;28;20033;-79
2023/01/26 05:04:28;;;;;;;15.30;2.78;;;;;;;3.44;100.00;103245.50;5014514;28;20030;-78
2023/01/26 05:06:54;;;;;;;12.73;2.38;;;;;;;3.44;100.00;103237.53;4998109;28;20121;-77
2023/01/26 05:09:20;;;;;;;17.10;3.42;;;;;;;3.46;100.00;103240.94;4998478;28;20120;-80
2023/01/26 05:11:46;;;;;;;13.88;3.22;;;;;;;3.53;100.00;103239.75;4998229;28;20467;-78
2023/01/26 05:14:12;;;;;;;19.42;3.60;;;;;;;3.65;100.00;103233.03;4982151;28;20112;-79
2023/01/26 05:16:37;;;;;;;28.13;3.67;;;;;;;3.77;100.00;103234.25;5014382;28;20042;-79
2023/01/26 05:19:03;;;;;;;20.33;3.25;;;;;;;3.88;100.00;103229.28;4998165;28;20042;-78
2023/01/26 05:21:29;;;;;;;23.98;4.43;;;;;;;4.04;100.00;103240.06;4998076;28;20029;-78
2023/01/26 05:23:54;;;;;;;20.88;3.15;;;;;;;4.10;100.00;103233.59;4997747;28;20056;-79
2023/01/26 05:26:20;;;;;;;32.28;3.15;;;;;;;4.04;100.00;103225.91;4997471;28;20030;-79
2023/01/26 05:28:47;;;;;;;25.98;3.60;;;;;;;4.17;100.00;103227.91;4998153;28;20038;-80
2023/01/26 05:31:12;;;;;;;19.30;3.60;;;;;;;4.23;100.00;103225.88;4981412;28;20048;-80
2023/01/26 05:33:38;;;;;;;8.65;2.03;;;;;;;4.25;100.00;103234.66;4997921;28;20439;-79
2023/01/26 05:36:05;;;;;;;15.48;2.63;;;;;;;4.34;100.00;103219.13;4997541;28;20463;-77
2023/01/26 05:38:31;;;;;;;18.20;2.70;;;;;;;4.45;100.00;103221.25;5013494;28;20487;-79
2023/01/26 05:40:58;;;;;;;22.45;3.45;;;;;;;4.36;100.00;103203.91;4981223;28;20103;-79
2023/01/26 05:43:24;;;;;;;15.32;2.47;;;;;;;4.44;100.00;103222.16;4981230;28;20062;-78
2023/01/26 05:45:49;;;;;;;19.60;3.08;;;;;;;4.47;100.00;103230.00;4997376;28;20025;-78
2023/01/26 05:48:15;;;;;;;11.38;3.00;;;;;;;4.47;100.00;103235.34;4997337;28;20033;-79
2023/01/26 05:50:41;;;;;;;18.33;2.65;;;;;;;4.43;100.00;103239.09;5013209;28;20036;-80
2023/01/26 05:53:07;;;;;;;21.00;3.90;;;;;;;4.35;100.00;103239.47;4997465;28;20038;-80
2023/01/26 05:55:33;;;;;;;5.00;2.47;;;;;;;4.33;100.00;103236.00;4997480;28;20487;-78
2023/01/26 05:57:58;;;;;;;20.55;3.38;;;;;;;4.31;100.00;103237.91;4997474;28;20439;-78
2023/01/26 06:00:24;;;;;;;22.13;3.30;;;;;;;4.31;100.00;103237.91;4996952;28;20038;-79
2023/01/26 06:02:50;;;;;;;18.75;3.60;;;;;;;4.28;100.00;103235.38;4997469;28;20034;-78
2023/01/26 06:05:16;;;;;;;13.93;2.53;;;;;;;4.28;100.00;103246.03;4997120;28;20037;-77
2023/01/26 06:07:41;;;;;;;17.48;3.20;;;;;;;4.24;100.00;103243.63;4997409;28;20111;-77
2023/01/26 06:10:08;;;;;;;17.50;2.40;;;;;;;4.22;100.00;103243.66;4980945;28;20483;-78
2023/01/26 06:12:34;;;;;;;26.40;3.30;;;;;;;4.09;100.00;103237.19;5013290;28;20042;-78
2023/01/26 06:15:01;;;;;;;15.50;2.75;;;;;;;4.15;100.00;103248.44;4997157;28;20480;-78
2023/01/26 06:17:27;;;;;;;14.60;2.55;;;;;;;4.20;100.00;103258.84;4981043;28;20129;-78
2023/01/26 06:19:53;;;;;;;16.67;2.55;;;;;;;4.11;100.00;103238.00;4996955;28;20113;-78
2023/01/26 06:22:19;;;;;;;21.67;2.85;;;;;;;4.26;100.00;103253.25;5013235;28;20030;-78
2023/01/26 06:24:45;;;;;;;13.20;3.05;;;;;;;4.21;100.00;103243.72;4996861;28;20034;-79
2023/01/26 06:27:14;;;;;;;14.80;3.05;;;;;;;4.25;100.00;103245.31;5012994;28;20034;-79
2023/01/26 06:29:41;;;;;;;20.08;2.92;;;;;;;4.35;100.00;103236.81;5013077;28;20045;-77
2023/01/26 06:32:09;;;;;;;13.20;1.88;;;;;;;4.44;100.00;103243.50;4997193;28;20037;-78
2023/01/26 06:34:35;;;;;;;5.40;1.60;;;;;;;4.53;100.00;103244.84;5012703;28;20037;-78
2023/01/26 06:37:01;;;;;;;15.65;2.65;;;;;;;4.59;100.00;103241.88;4996503;28;20379;-78
2023/01/26 06:39:26;;;;;;;17.13;3.22;;;;;;;4.54;100.00;103233.25;4996251;28;20486;-79
2023/01/26 06:41:52;;;;;;;21.42;2.50;;;;;;;4.62;100.00;103249.72;4996768;28;20124;-79
2023/01/26 06:44:18;;;;;;;17.75;2.80;;;;;;;4.65;100.00;103251.38;4996657;28;20042;-79
2023/01/26 06:46:43;;;;;;;23.67;3.03;;;;;;;4.67;100.00;103247.69;4996494;28;20040;-78
2023/01/26 06:49:09;;;;;;;23.38;4.07;;;;;;;4.65;100.00;103249.56;4996612;28;20121;-78
2023/01/26 06:51:55;;;;;;;18.67;3.72;;;;;;;4.65;100.00;103257.56;4996610;28;20026;-78
2023/01/26 06:54:21;;;;;;;21.92;2.95;;;;;;;4.44;100.00;103218.66;5013909;28;20438;-77
2023/01/26 06:56:46;;;;;;;28.35;4.53;;;;;;;4.66;100.00;103237.09;4996799;28;20033;-78
2023/01/26 06:59:13;;;;;;;29.45;4.70;;;;;;;4.74;100.00;103256.25;4996403;28;20383;-78
2023/01/26 07:01:46;;;;;;;11.00;1.85;;;;;;;4.75;100.00;103253.50;4996679;28;20042;-79
2023/01/26 07:04:11;;;;;;;14.30;2.80;;;;;;;4.89;100.00;103241.28;5012801;28;20041;-78
2023/01/26 07:06:37;;;;;;;11.93;3.08;;;;;;;5.01;100.00;103243.34;4996020;28;20038;-78
2023/01/26 07:09:04;;;;;;;41.25;5.78;;;;;;;4.99;100.00;103251.41;4996502;28;20121;-78
2023/01/26 07:11:31;;;;;;;21.38;3.65;;;;;;;4.92;100.00;103243.78;5012604;28;20030;-79
2023/01/26 07:13:58;;;;;;;14.95;2.10;;;;;;;4.92;100.00;103249.13;4996774;28;20092;-78
2023/01/26 07:16:24;;;;;;;18.30;2.47;;;;;;;4.96;100.00;103240.03;4996220;28;20045;-78
2023/01/26 07:18:52;;;;;;;8.82;2.85;;;;;;;5.15;100.00;103259.47;4980014;28;20474;-78
2023/01/26 07:21:18;;;;;;;15.35;2.40;;;;;;;5.11;100.00;103241.91;5012216;28;20378;-81
2023/01/26 07:23:44;;;;;;;18.88;2.92;;;;;;;5.21;100.00;103256.50;5012448;28;20089;-78
2023/01/26 07:26:11;;;;;;;20.67;3.15;;;;;;;5.23;100.00;103265.28;5011974;28;20032;-77
2023/01/26 07:28:36;;;;;;;23.10;2.80;;;;;;;5.31;100.00;103269.34;5012477;28;20053;-80
2023/01/26 07:31:04;;;;;;;21.08;3.03;;;;;;;5.34;100.00;103264.72;4995921;28;20460;-79
2023/01/26 07:33:31;;;;;;;13.48;3.72;;;;;;;5.32;100.00;103266.63;4979383;28;20048;-77
2023/01/26 07:35:57;;;;;;;8.55;2.15;;;;;;;5.24;100.00;103263.50;5012196;28;20029;-77
2023/01/26 07:38:23;;;;;;;19.88;2.90;;;;;;;5.27;100.00;103274.00;4978992;28;20037;-79
2023/01/26 07:40:49;;;;;;;24.45;4.60;;;;;;;5.33;100.00;103275.47;5012394;28;20037;-78
2023/01/26 07:43:15;;;;;;;15.55;2.95;;;;;;;5.34;100.00;103263.84;4996102;28;20137;-77
2023/01/26 07:45:50;;;;;;;10.60;2.33;;;;;;;5.35;100.00;103271.78;4995486;28;20105;-76
2023/01/26 07:48:21;;;;;;;10.88;2.97;;;;;;;5.43;100.00;103277.59;5012103;28;20056;-79
2023/01/26 07:50:48;;;;;;;13.93;3.05;;;;;;;5.52;100.00;103278.91;4995737;28;20049;-78
2023/01/26 07:53:18;;;;;;;10.73;2.33;;;;;;;5.58;100.00;103280.38;4980155;28;20069;-78
2023/01/26 07:55:44;;;;;;;12.98;2.25;;;;;;;5.66;100.00;103279.03;5014067;28;20113;-77
2023/01/26 07:58:11;;;;;;;9.20;2.78;;;;;;;5.67;100.00;103272.75;5012602;28;20453;-79
2023/01/26 08:00:36;;;;;;;17.88;4.05;;;;;;;5.63;100.00;103260.50;5012301;28;20069;-77
2023/01/26 08:03:02;;;;;;;22.45;3.15;;;;;;;5.65;100.00;103274.63;4995821;28;20173;-79
2023/01/26 08:05:28;;;;;;;23.27;3.28;;;;;;;5.61;100.00;103269.53;4981496;28;20058;-77
2023/01/26 08:08:00;;;;;;;9.23;1.63;;;;;;;5.66;100.00;103278.16;4999426;28;20037;-78
2023/01/26 08:10:30;;;;;;;24.30;2.92;;;;;;;5.65;100.00;103268.44;5015191;28;20030;-77
2023/01/26 08:13:00;;;;;;;16.38;2.35;;;;;;;5.65;100.00;103271.09;5014558;28;20030;-79
2023/01/26 08:15:26;;;;;;;20.13;2.13;;;;;;;5.71;100.00;103273.44;4998325;28;20120;-79
2023/01/26 08:17:53;;;;;;;19.38;3.55;;;;;;;5.68;100.00;103265.59;4982566;28;20050;-79
2023/01/26 08:20:19;;;;;;;22.95;3.35;;;;;;;5.76;100.00;103284.72;4999112;28;20029;-78
2023/01/26 08:22:45;;;;;;;20.60;3.20;;;;;;;5.73;100.00;103282.22;4998478;28;20053;-78
2023/01/26 08:25:14;;;;;;;17.30;2.83;;;;;;;5.74;100.00;103283.94;4982350;28;20483;-79
2023/01/26 08:27:39;;;;;;;20.13;3.35;;;;;;;5.73;100.00;103290.25;4999380;28;20060;-77
2023/01/26 08:30:06;;;;;;;8.20;2.35;;;;;;;5.73;100.00;103299.09;4982660;28;20490;-77
2023/01/26 08:32:32;;;;;;;22.42;3.58;;;;;;;5.72;100.00;103296.53;4998680;28;20084;-77
2023/01/26 08:34:58;;;;;;;19.27;3.78;;;;;;;5.75;100.00;103298.19;4998432;28;20502;-77
2023/01/26 08:37:23;;;;;;;13.93;2.22;;;;;;;5.71;100.00;103281.44;4997954;28;20049;-77
2023/01/26 08:39:49;;;;;;;16.58;2.58;;;;;;;5.80;100.00;103288.13;5014301;28;20427;-79
2023/01/26 08:42:15;;;;;;;11.98;2.30;;;;;;;5.71;100.00;103278.78;4997763;28;20546;-79
2023/01/26 08:44:40;;;;;;;24.70;3.22;;;;;;;5.77;100.00;103288.25;4998388;28;20506;-77
2023/01/26 08:47:06;;;;;;;14.38;2.55;;;;;;;5.81;100.00;103292.50;4981752;28;20026;-78
2023/01/26 08:49:32;;;;;;;22.48;2.97;;;;;;;5.78;100.00;103284.66;4982277;28;20099;-78
2023/01/26 08:51:58;;;;;;;18.92;3.08;;;;;;;5.82;100.00;103289.78;4981914;28;20361;-77
2023/01/26 08:54:23;;;;;;;9.77;3.33;;;;;;;5.89;100.00;103304.50;4998064;28;20361;-78
2023/01/26 08:56:49;;;;;;;23.55;3.20;;;;;;;5.90;100.00;103303.56;4998344;28;20352;-79
2023/01/26 08:59:15;;;;;;;28.35;3.35;;;;;;;5.93;100.00;103310.53;4998225;28;20526;-77
2023/01/26 09:01:41;;;;;;;20.30;3.03;;;;;;;5.85;100.00;103288.75;4998337;28;20042;-77
2023/01/26 09:04:06;;;;;;;8.30;2.05;;;;;;;5.96;100.00;103298.88;4998195;28;20045;-78
2023/01/26 09:06:32;;;;;;;23.10;4.00;;;;;;;6.00;100.00;103298.59;4998088;28;20030;-76
2023/01/26 09:08:58;;;;;;;22.30;3.53;;;;;;;6.00;100.00;103300.41;5014277;28;20511;-78
2023/01/26 09:11:24;;;;;;;20.85;2.63;;;;;;;6.06;100.00;103305.41;4981655;28;20030;-78
2023/01/26 09:13:55;;;;;;;24.42;2.70;;;;;;;6.04;100.00;103294.81;4997987;28;20108;-80
2023/01/26 09:16:21;;;;;;;7.93;2.28;;;;;;;6.13;100.00;103304.13;4998198;28;20033;-80
2023/01/26 09:18:51;;;;;;;11.55;2.40;;;;;;;6.15;100.00;103305.78;4997537;28;20064;-81
2023/01/26 09:21:17;;;;;;;14.65;2.38;;;;;;;6.11;100.00;103293.56;4997949;28;20033;-78
2023/01/26 09:23:43;;;;;;;25.65;4.65;;;;;;;6.23;100.00;103301.81;4998058;28;20513;-80
2023/01/26 09:26:09;;;;;;;32.45;5.45;;;;;;;6.23;100.00;103296.47;5013930;28;20037;-78
2023/01/26 09:28:35;;;;;;;27.95;5.97;;;;;;;6.10;100.00;103290.94;5014100;28;20034;-79
2023/01/26 09:31:12;;;;;;;16.80;4.55;;;;;;;6.24;100.00;103314.22;4981708;28;20486;-80
2023/01/26 09:33:38;;;;;;;25.13;4.65;;;;;;;6.14;100.00;103297.88;4982596;28;20060;-80
2023/01/26 09:36:09;;;;;;;23.48;3.90;;;;;;;6.27;100.00;103311.38;5013727;28;20468;-80
2023/01/26 09:38:35;;;;;;;24.85;3.67;;;;;;;6.24;100.00;103309.75;5013356;28;20081;-79
2023/01/26 09:41:19;;;;;;;26.70;4.57;;;;;;;6.29;100.00;103323.72;4997306;28;20127;-78
2023/01/26 09:43:50;;;;;;;25.10;5.53;;;;;;;6.31;100.00;103315.63;4997608;28;20369;-79
2023/01/26 09:46:31;;;;;;;25.58;5.05;;;;;;;6.40;100.00;103315.09;5013614;28;20037;-79
2023/01/26 09:49:00;;;;;;;19.40;4.38;;;;;;;6.50;100.00;103313.63;5013434;28;20026;-79
2023/01/26 09:51:44;;;;;;;8.20;2.35;;;;;;;6.58;100.00;103318.56;5013719;28;20495;-88
2023/01/26 09:54:28;;;;;;;7.72;2.63;;;;;;;6.47;100.00;103284.41;5013844;28;20030;-88
2023/01/26 09:56:55;;;;;;;26.42;3.85;;;;;;;6.76;100.00;103330.00;5013722;28;20435;-88
2023/01/26 09:59:34;;;;;;;14.30;2.38;;;;;;;6.80;100.00;103328.88;4997764;28;20041;-88
2023/01/26 10:02:37;;;;;;;12.65;2.90;;;;;;;6.91;100.00;103331.81;4997103;28;20034;-88
2023/01/26 10:05:11;;;;;;;17.42;4.03;;;;;;;6.99;100.00;103318.84;4981123;28;20038;-88
2023/01/26 10:07:37;;;;;;;21.95;5.07;;;;;;;7.18;100.00;103333.81;4997597;28;20112;-88
2023/01/26 10:10:03;;;;;;;40.70;5.97;;;;;;;7.27;100.00;103339.47;5013218;28;20391;-88
2023/01/26 10:12:38;;;;;;;18.90;4.00;;;;;;;7.42;100.00;103335.03;5013418;28;20545;-89
2023/01/26 10:15:09;;;;;;;24.83;4.78;;;;;;;7.54;100.00;103327.22;5013150;28;20075;-86
2023/01/26 10:17:41;;;;;;;17.75;3.95;;;;;;;7.60;100.00;103325.03;5013290;28;20353;-87
2023/01/26 10:20:30;;;;;;;24.27;4.80;;;;;;;7.60;100.00;103330.38;4996989;28;20121;-88
2023/01/26 10:23:05;;;;;;;14.48;2.60;;;;;;;7.58;100.00;103318.06;4996974;28;20096;-89
2023/01/26 10:25:35;;;;;;;31.95;4.78;;;;;;;7.57;100.00;103298.44;4996933;28;20124;-86
2023/01/26 10:28:12;;;;;;;6.53;1.67;;;;;;;7.89;100.00;103333.09;4996562;28;20041;-88
2023/01/26 10:30:40;;;;;;;27.80;4.43;;;;;;;7.91;100.00;103329.38;5014013;28;20233;-85
2023/01/26 10:33:15;;;;;;;17.92;5.00;;;;;;;8.01;100.00;103342.19;4996565;28;20476;-88
2023/01/26 10:35:41;;;;;;;27.17;4.05;;;;;;;8.13;100.00;103333.38;4980753;28;20058;-87
2023/01/26 10:38:31;;;;;;;23.48;3.65;;;;;;;8.35;100.00;103344.44;4996518;28;20085;-87
2023/01/26 10:41:05;;;;;;;19.70;2.60;;;;;;;8.54;100.00;103349.53;5012839;28;20033;-87
2023/01/26 10:43:34;;;;;;;18.15;2.70;;;;;;;8.57;100.00;103322.53;5012931;28;20534;-87
2023/01/26 10:46:02;;;;;;;23.10;2.92;;;;;;;8.61;100.00;103317.81;4996432;28;20034;-87
2023/01/26 10:48:29;;;;;;;17.23;3.72;;;;;;;8.81;100.00;103329.91;4996322;28;20048;-87
2023/01/26 10:51:14;;;;;;;21.88;4.57;;;;;;;9.18;100.00;103348.91;5020576;28;20109;-86
2023/01/26 10:53:39;;;;;;;24.65;5.15;;;;;;;9.32;100.00;103334.59;4999364;28;20034;-87
2023/01/26 10:56:11;;;;;;;17.05;4.00;;;;;;;9.14;100.00;103324.13;4997075;28;20120;-86
2023/01/26 10:58:40;;;;;;;22.02;3.45;;;;;;;9.20;100.00;103353.22;4980491;28;20046;-86
2023/01/26 11:01:11;;;;;;;12.68;3.42;;;;;;;9.26;100.00;103346.56;5012869;28;20033;-87
2023/01/26 11:03:40;;;;;;;20.08;3.45;;;;;;;9.49;100.00;103341.47;5012371;28;20030;-86
2023/01/26 11:06:14;;;;;;;11.45;2.42;;;;;;;9.60;100.00;103333.53;5012665;28;20038;-86
2023/01/26 11:08:40;;;;;;;16.05;3.88;;;;;;;9.54;100.00;103332.13;4996112;28;20042;-86
2023/01/26 11:11:09;;;;;;;10.45;2.45;;;;;;;9.52;100.00;103350.16;4996286;28;20038;-85
2023/01/26 11:13:35;;;;;;;10.52;2.25;;;;;;;9.67;100.00;103361.69;4996339;28;20037;-86
2023/01/26 11:16:16;;;;;;;19.73;3.33;;;;;;;9.89;100.00;103359.22;5011842;28;20068;-85
2023/01/26 11:18:44;;;;;;;26.20;3.03;;;;;;;10.08;99.62;103350.75;5012095;28;20391;-86
2023/01/26 11:21:26;;;;;;;10.40;2.42;;;;;;;10.20;100.00;103343.63;5012462;28;20045;-85
2023/01/26 11:24:16;;;;;;;30.15;3.65;;;;;;;10.36;98.89;103348.78;5012463;28;20025;-86
2023/01/26 11:27:11;;;;;;;13.60;2.28;;;;;;;10.45;99.23;103341.88;4996239;28;20449;-85
2023/01/26 11:29:43;;;;;;;8.77;1.80;;;;;;;10.61;99.39;103336.22;4996121;28;20038;-85
2023/01/26 11:32:40;;;;;;;19.85;2.40;;;;;;;10.72;95.17;103333.63;5026028;28;20491;-85
2023/01/26 11:35:08;;;;;;;18.38;2.55;;;;;;;10.92;84.83;103332.13;5010831;28;20069;-86
2023/01/26 11:37:46;;;;;;;15.80;2.55;;;;;;;11.13;89.59;103332.34;5028750;28;20033;-86
2023/01/26 11:40:36;;;;;;;15.68;2.65;;;;;;;11.20;85.34;103320.13;5015525;28;20045;-85
2023/01/26 11:43:33;;;;;;;11.82;2.10;;;;;;;11.41;82.50;103310.38;5016311;28;20030;-85
2023/01/26 11:46:20;;;;;;;8.05;2.28;;;;;;;11.72;79.96;103294.50;5016962;28;20578;-85
2023/01/26 11:49:05;;;;;;;8.88;2.10;;;;;;;12.44;74.93;103313.03;5017215;28;20383;-86
2023/01/26 11:51:57;;;;;;;30.42;3.40;;;;;;;14.14;71.58;103297.59;5015952;28;20021;-85
2023/01/26 11:54:23;;;;;;;11.57;2.22;;;;;;;15.32;64.07;103294.88;5032307;28;20034;-85
2023/01/26 11:57:26;;;;;;;9.48;2.35;;;;;;;15.56;64.90;103305.25;5015906;28;20034;-86
2023/01/26 11:59:57;;;;;;;12.15;1.90;;;;;;;16.09;55.55;103303.81;5015777;28;20025;-86
2023/01/26 12:02:33;;;;;;;6.18;2.08;;;;;;;16.81;50.38;103303.97;5015986;28;20041;-86
2023/01/26 12:05:21;;;;;;;11.55;2.80;;;;;;;18.45;46.97;103303.13;4999584;28;20042;-86
2023/01/26 12:08:02;;;;;;;24.00;2.92;;;;;;;18.73;40.22;103298.22;5015750;28;20105;-86
2023/01/26 12:11:24;;;;;;;9.63;2.08;;;;;;;16.58;46.21;103292.66;5015606;28;20038;-85
2023/01/26 12:14:14;;;;;;;10.48;2.40;;;;;;;14.19;54.80;103297.19;4997915;28;20049;-86